Airfield :
LOGIN :

Register | Disclaimer

   EN    FR    IT 

 










Legend :    VFR   Marginal VFR   IFR   Intensive IFR   Very Intensive IFR
Visi :
Ceiling :
>= 8 km
>= 3000ft
5 to 8 km
1000 to 3000 ft
1500m to 5 km
500 to 1000 ft
800 to 1500m
200 to 500 ft
< 800m
< 200 ft
Symbols :   Thunderstorms  Fog  Heavy snow  Heavy precipitations  Wind > 20 kt
SIGMETs :     Misc.  Thunderstorms  Icing  Turbulence  Mountain Waves  Volcanic Ashes






- Airport Elevation : 218 ft
- IATA code : LBG


LFPB - Paris / Le Bourget

CURRENT METAR :
  • 052030Z AUTO 36005KT 320V030 CAVOK 05/01 Q1042 NOSIG

EXPIRED METARs :
  • 052000Z AUTO 36005KT 330V030 CAVOK 05/01 Q1042 NOSIG
  • 051930Z AUTO 35003KT 310V030 9999 FEW033 05/01 Q1042 NOSIG
  • 051900Z AUTO 35005KT 320V020 9999 FEW033 06/01 Q1042 NOSIG
  • 051830Z AUTO 35006KT CAVOK 06/01 Q1042 NOSIG
  • 051800Z AUTO 34008KT CAVOK 07/01 Q1042 NOSIG
  • 051730Z AUTO 34008KT 320V020 CAVOK 07/01 Q1041 NOSIG

TAF TAF LFPB
Valid from the 05 at 18:00 until the 06 at 18:00 UTC


051700Z 0518/0618 36010KT CAVOK
PROB40
TEMPO 0604/0609 BKN008
ATIS : +33 1 48 62 43 92



MET'MAP, your aeronautical weather chart ! - Copyright ORBIFLY December 2007 - Disclaimer

ORBIFLY MET'MAP TEAM :

Programming & Development : Alexandra Zaïnal
Original concept : Baudouin d'Aumeries
Technical & hardware support : Manuel Goepfert
Assistance : Marc-Olivier Méhu




SOURCES & CREDITS :

   NOAA